Time;durP1;ratioP1;P1;durP2;ratioP2;P2;SDS_P1;SDS_P2;PMS_P1;PMS_P2;Temp;Humidity;BMP_temperature;BMP_pressure;BME280_temperature;BME280_humidity;BME280_pressure;Samples;Min_cycle;Max_cycle;Signal;HPM_P1;HPM_P2
2021/03/07 00:05:14;;;;;;;20.25;16.10;;;;;;;;;;4909362;28;20194;-56
2021/03/07 00:07:41;;;;;;;20.83;16.02;;;;;;;;;;4180279;34;20106;-57
2021/03/07 00:10:08;;;;;;;18.87;15.70;;;;;;;;;;4178704;34;20110;-57
2021/03/07 00:12:34;;;;;;;22.30;16.75;;;;;;;;;;4178839;34;20105;-58
2021/03/07 00:15:00;;;;;;;19.60;16.35;;;;;;;;;;4178611;34;20216;-58
2021/03/07 00:17:26;;;;;;;19.52;14.15;;;;;;;;;;4178731;34;20118;-58
2021/03/07 00:19:52;;;;;;;18.42;14.50;;;;;;;;;;4178706;34;20110;-58
2021/03/07 00:22:18;;;;;;;19.02;14.10;;;;;;;;;;4178974;34;20118;-59
2021/03/07 00:24:43;;;;;;;19.92;14.52;;;;;;;;;;4178972;34;20643;-57
2021/03/07 00:27:09;;;;;;;19.60;14.57;;;;;;;;;;4178767;34;20141;-58
2021/03/07 00:29:35;;;;;;;14.77;12.10;;;;;;;;;;4178871;34;20107;-57
2021/03/07 00:32:01;;;;;;;16.10;11.02;;;;;;;;;;4178466;34;20090;-58
2021/03/07 00:34:27;;;;;;;14.93;11.48;;;;;;;;;;4178641;34;20128;-57
2021/03/07 00:36:53;;;;;;;14.45;11.02;;;;;;;;;;4178402;34;20502;-58
2021/03/07 00:39:19;;;;;;;12.63;10.70;;;;;;;;;;4178574;34;20121;-58
2021/03/07 00:41:45;;;;;;;14.87;10.95;;;;;;;;;;4178438;34;20601;-57
2021/03/07 00:44:12;;;;;;;12.60;10.75;;;;;;;;;;4178491;34;20530;-58
2021/03/07 00:46:39;;;;;;;13.75;10.32;;;;;;;;;;4178415;34;20219;-58
2021/03/07 00:49:05;;;;;;;15.05;9.45;;;;;;;;;;4178509;34;20126;-58
2021/03/07 00:51:31;;;;;;;11.75;10.07;;;;;;;;;;4178293;34;20206;-57
2021/03/07 00:53:57;;;;;;;14.25;9.95;;;;;;;;;;4165806;34;20198;-57
2021/03/07 00:56:23;;;;;;;14.70;9.57;;;;;;;;;;4178402;34;20113;-57
2021/03/07 00:58:49;;;;;;;15.55;10.55;;;;;;;;;;4178712;34;20596;-57
2021/03/07 01:01:14;;;;;;;13.23;9.75;;;;;;;;;;4178332;34;20136;-58
2021/03/07 01:03:40;;;;;;;14.45;9.75;;;;;;;;;;4178423;34;20238;-57
2021/03/07 01:06:06;;;;;;;10.98;9.82;;;;;;;;;;4177937;34;20119;-56
2021/03/07 01:08:32;;;;;;;11.52;8.90;;;;;;;;;;4177443;34;20574;-57
2021/03/07 01:10:58;;;;;;;11.50;8.98;;;;;;;;;;4178219;34;20106;-58
2021/03/07 01:13:24;;;;;;;12.68;8.35;;;;;;;;;;4178303;34;20113;-57
2021/03/07 01:15:50;;;;;;;10.43;8.60;;;;;;;;;;4178008;34;20114;-57
2021/03/07 01:18:16;;;;;;;12.85;9.07;;;;;;;;;;4178225;34;20110;-57
2021/03/07 01:20:42;;;;;;;11.52;8.52;;;;;;;;;;4178089;34;20142;-57
2021/03/07 01:23:08;;;;;;;10.40;8.30;;;;;;;;;;4178438;34;20133;-57
2021/03/07 01:25:34;;;;;;;9.50;8.30;;;;;;;;;;4165461;34;20126;-57
2021/03/07 01:28:01;;;;;;;10.75;7.97;;;;;;;;;;4178220;34;20149;-57
2021/03/07 01:30:28;;;;;;;11.90;8.60;;;;;;;;;;4177988;34;20193;-57
2021/03/07 01:32:54;;;;;;;11.20;9.02;;;;;;;;;;4178072;34;20191;-57
2021/03/07 01:35:21;;;;;;;11.80;8.48;;;;;;;;;;4177950;34;20541;-57
2021/03/07 01:37:47;;;;;;;9.15;8.23;;;;;;;;;;4178351;34;20117;-58
2021/03/07 01:40:33;;;;;;;10.98;9.23;;;;;;;;;;4178136;34;20142;-57
2021/03/07 01:43:00;;;;;;;10.13;7.80;;;;;;;;;;4177976;34;20129;-57
2021/03/07 01:45:28;;;;;;;8.05;7.25;;;;;;;;;;4177916;34;20135;-57
2021/03/07 01:47:55;;;;;;;9.68;7.72;;;;;;;;;;4177994;34;20687;-57
2021/03/07 01:50:25;;;;;;;10.15;7.55;;;;;;;;;;4177865;34;20230;-57
2021/03/07 01:52:52;;;;;;;10.45;7.70;;;;;;;;;;4177994;34;20107;-57
2021/03/07 01:55:19;;;;;;;7.80;6.75;;;;;;;;;;4177705;34;20200;-57
2021/03/07 01:57:46;;;;;;;7.53;6.72;;;;;;;;;;4178016;34;20202;-57
2021/03/07 02:00:13;;;;;;;8.27;7.35;;;;;;;;;;4177773;34;20102;-58
2021/03/07 02:02:39;;;;;;;7.87;7.05;;;;;;;;;;4177962;34;20195;-57
2021/03/07 02:05:09;;;;;;;8.77;7.35;;;;;;;;;;4177645;34;20149;-57
2021/03/07 02:07:35;;;;;;;8.80;7.20;;;;;;;;;;4177884;34;20533;-57
2021/03/07 02:10:03;;;;;;;11.20;7.32;;;;;;;;;;4177668;34;20117;-58
2021/03/07 02:12:29;;;;;;;9.35;7.20;;;;;;;;;;4177879;34;20130;-57
2021/03/07 02:14:55;;;;;;;8.95;7.30;;;;;;;;;;4165019;34;20204;-57
2021/03/07 02:17:21;;;;;;;8.85;7.57;;;;;;;;;;4164951;34;20487;-57
2021/03/07 02:19:47;;;;;;;9.27;7.40;;;;;;;;;;4164780;34;20129;-58
2021/03/07 02:22:17;;;;;;;8.45;7.05;;;;;;;;;;4177625;34;20303;-57
2021/03/07 02:24:43;;;;;;;8.25;7.10;;;;;;;;;;4165357;34;20518;-57
2021/03/07 02:27:08;;;;;;;9.43;7.70;;;;;;;;;;4177530;34;20128;-57
2021/03/07 02:29:34;;;;;;;8.07;6.68;;;;;;;;;;4177945;34;20110;-58
2021/03/07 02:32:04;;;;;;;11.82;6.78;;;;;;;;;;4177665;34;20150;-58
2021/03/07 02:34:33;;;;;;;9.18;7.85;;;;;;;;;;4164931;34;20201;-57
2021/03/07 02:37:01;;;;;;;8.73;7.55;;;;;;;;;;4164798;34;20467;-57
2021/03/07 02:39:30;;;;;;;9.50;7.10;;;;;;;;;;4177524;34;20125;-57
2021/03/07 02:42:09;;;;;;;12.98;7.85;;;;;;;;;;4164831;34;20122;-57
2021/03/07 02:44:35;;;;;;;8.57;7.65;;;;;;;;;;4176278;34;20489;-58
2021/03/07 02:47:02;;;;;;;9.25;7.35;;;;;;;;;;4164889;34;20226;-57
2021/03/07 02:49:28;;;;;;;8.57;7.75;;;;;;;;;;4177487;34;20222;-57
2021/03/07 02:51:54;;;;;;;11.57;8.18;;;;;;;;;;4164660;34;20154;-57
2021/03/07 02:54:20;;;;;;;8.70;7.80;;;;;;;;;;4164753;34;20535;-57
2021/03/07 02:56:50;;;;;;;9.43;7.60;;;;;;;;;;4164582;34;20109;-57
2021/03/07 02:59:15;;;;;;;9.48;8.50;;;;;;;;;;4164709;34;20205;-57
2021/03/07 03:01:41;;;;;;;10.68;8.05;;;;;;;;;;4164783;34;20534;-58
2021/03/07 03:04:08;;;;;;;14.65;9.45;;;;;;;;;;4164882;34;20494;-57
2021/03/07 03:06:38;;;;;;;9.55;8.40;;;;;;;;;;4164687;34;20128;-58
2021/03/07 03:09:09;;;;;;;10.82;8.73;;;;;;;;;;4176105;34;20556;-58
2021/03/07 03:11:36;;;;;;;10.23;8.52;;;;;;;;;;4164472;34;20104;-57
2021/03/07 03:14:02;;;;;;;10.43;8.10;;;;;;;;;;4164548;34;20133;-58
2021/03/07 03:16:30;;;;;;;11.55;8.27;;;;;;;;;;4164368;34;20118;-57
2021/03/07 03:18:57;;;;;;;12.73;8.77;;;;;;;;;;4164542;34;20110;-57
2021/03/07 03:21:22;;;;;;;11.23;9.02;;;;;;;;;;4164685;34;20126;-57
2021/03/07 03:23:48;;;;;;;10.43;7.75;;;;;;;;;;4177179;34;20202;-58
2021/03/07 03:26:15;;;;;;;11.00;9.07;;;;;;;;;;4164423;34;20623;-58
2021/03/07 03:28:41;;;;;;;11.93;8.85;;;;;;;;;;4164631;34;20223;-57
2021/03/07 03:31:07;;;;;;;11.30;8.98;;;;;;;;;;4176167;34;20122;-58
2021/03/07 03:33:32;;;;;;;9.73;8.25;;;;;;;;;;4177130;34;20455;-58
2021/03/07 03:35:59;;;;;;;11.38;8.70;;;;;;;;;;4176794;34;20121;-59
2021/03/07 03:38:30;;;;;;;9.70;8.60;;;;;;;;;;4177063;34;20114;-58
2021/03/07 03:40:56;;;;;;;10.15;7.97;;;;;;;;;;4176872;34;20655;-58
2021/03/07 03:43:22;;;;;;;10.25;8.25;;;;;;;;;;4176919;34;20150;-59
2021/03/07 03:45:48;;;;;;;8.73;7.82;;;;;;;;;;4164347;34;20111;-57
2021/03/07 03:48:17;;;;;;;9.95;7.80;;;;;;;;;;4164137;34;20438;-57
2021/03/07 03:50:42;;;;;;;12.52;9.18;;;;;;;;;;4176996;34;20198;-58
2021/03/07 03:53:17;;;;;;;9.57;8.45;;;;;;;;;;4164383;34;20261;-57
2021/03/07 03:55:48;;;;;;;11.43;8.63;;;;;;;;;;4163929;34;20553;-58
2021/03/07 03:58:14;;;;;;;15.60;11.60;;;;;;;;;;4152956;34;20126;-57
2021/03/07 04:00:41;;;;;;;14.30;10.70;;;;;;;;;;4164010;34;20522;-57
2021/03/07 04:03:11;;;;;;;11.88;8.20;;;;;;;;;;4176653;34;20091;-58
2021/03/07 04:05:37;;;;;;;9.68;8.02;;;;;;;;;;4164171;34;20103;-57
2021/03/07 04:08:03;;;;;;;11.25;7.82;;;;;;;;;;4163973;34;20118;-58
2021/03/07 04:10:29;;;;;;;9.45;8.43;;;;;;;;;;4164139;34;20189;-58
2021/03/07 04:12:57;;;;;;;8.98;7.72;;;;;;;;;;4164136;34;20110;-58
2021/03/07 04:15:23;;;;;;;10.95;8.32;;;;;;;;;;4176520;34;20129;-58
2021/03/07 04:17:49;;;;;;;9.80;8.20;;;;;;;;;;4163855;34;20459;-60
2021/03/07 04:20:15;;;;;;;9.52;8.52;;;;;;;;;;4176424;34;20109;-58
2021/03/07 04:22:41;;;;;;;8.60;7.20;;;;;;;;;;4176517;34;20103;-57
2021/03/07 04:25:08;;;;;;;8.13;7.32;;;;;;;;;;4163917;34;20113;-58
2021/03/07 04:27:34;;;;;;;8.70;7.55;;;;;;;;;;4176490;34;20105;-58
2021/03/07 04:30:01;;;;;;;8.77;7.87;;;;;;;;;;4163610;34;20102;-57
2021/03/07 04:32:27;;;;;;;9.32;7.25;;;;;;;;;;4152548;34;20115;-58
2021/03/07 04:34:52;;;;;;;10.80;7.05;;;;;;;;;;4163582;34;20190;-58
2021/03/07 04:37:18;;;;;;;9.93;7.28;;;;;;;;;;4163539;34;20102;-57
2021/03/07 04:39:44;;;;;;;7.87;7.10;;;;;;;;;;4176303;34;20190;-57
2021/03/07 04:42:10;;;;;;;9.93;8.57;;;;;;;;;;4163759;34;20142;-57
2021/03/07 04:44:36;;;;;;;10.07;9.07;;;;;;;;;;4165998;34;20152;-58
2021/03/07 04:47:02;;;;;;;8.73;7.35;;;;;;;;;;4178185;34;20609;-58
2021/03/07 04:49:28;;;;;;;9.60;7.15;;;;;;;;;;4178488;34;20118;-58
2021/03/07 04:51:54;;;;;;;10.10;7.40;;;;;;;;;;4178429;34;20139;-58
2021/03/07 04:54:20;;;;;;;7.70;6.90;;;;;;;;;;4178433;34;20193;-58
2021/03/07 04:56:45;;;;;;;8.40;7.45;;;;;;;;;;4165546;34;20122;-58
2021/03/07 04:59:11;;;;;;;8.20;6.78;;;;;;;;;;4178308;34;20118;-58
2021/03/07 05:01:38;;;;;;;6.75;6.05;;;;;;;;;;4178327;34;20556;-58
2021/03/07 05:04:05;;;;;;;8.18;6.70;;;;;;;;;;4178195;34;20109;-57
2021/03/07 05:06:34;;;;;;;7.15;6.10;;;;;;;;;;4165498;34;20179;-58
2021/03/07 05:09:00;;;;;;;7.28;6.57;;;;;;;;;;4178533;34;20105;-57
2021/03/07 05:11:26;;;;;;;6.50;5.78;;;;;;;;;;4178125;34;20114;-58
2021/03/07 05:13:52;;;;;;;8.48;6.30;;;;;;;;;;4178203;34;20597;-58
2021/03/07 05:16:20;;;;;;;7.45;6.65;;;;;;;;;;4178166;34;20122;-58
2021/03/07 05:18:46;;;;;;;6.93;6.22;;;;;;;;;;4165690;34;20292;-58
2021/03/07 05:21:12;;;;;;;9.25;6.68;;;;;;;;;;4178163;34;20107;-58
2021/03/07 05:23:38;;;;;;;7.75;6.62;;;;;;;;;;4178223;34;20117;-58
2021/03/07 05:26:04;;;;;;;7.47;6.03;;;;;;;;;;4178014;34;20576;-58
2021/03/07 05:28:30;;;;;;;7.90;6.85;;;;;;;;;;4178138;34;20115;-58
2021/03/07 05:30:56;;;;;;;7.60;5.93;;;;;;;;;;4178230;34;20322;-58
2021/03/07 05:33:22;;;;;;;9.23;6.90;;;;;;;;;;4178127;34;20109;-58
2021/03/07 05:35:48;;;;;;;7.47;6.68;;;;;;;;;;4177824;34;20122;-59
2021/03/07 05:38:14;;;;;;;10.18;7.40;;;;;;;;;;4165365;34;20161;-59
2021/03/07 05:40:43;;;;;;;6.93;6.22;;;;;;;;;;4178152;34;20211;-60
2021/03/07 05:43:14;;;;;;;8.05;6.60;;;;;;;;;;4165826;34;20193;-59
2021/03/07 05:45:40;;;;;;;8.27;6.85;;;;;;;;;;4177847;34;20110;-60
2021/03/07 05:48:06;;;;;;;9.93;6.78;;;;;;;;;;4178366;34;20440;-60
2021/03/07 05:50:32;;;;;;;9.43;6.43;;;;;;;;;;4177907;34;20134;-59
2021/03/07 05:52:58;;;;;;;8.07;6.82;;;;;;;;;;4178117;34;20141;-59
2021/03/07 05:55:25;;;;;;;7.20;6.32;;;;;;;;;;4177091;34;20490;-60
2021/03/07 05:57:51;;;;;;;8.60;6.75;;;;;;;;;;4178134;34;20214;-59
2021/03/07 06:00:20;;;;;;;8.00;6.30;;;;;;;;;;4165057;34;20110;-59
2021/03/07 06:02:46;;;;;;;7.28;6.22;;;;;;;;;;4165093;34;20557;-60
2021/03/07 06:05:13;;;;;;;6.85;5.93;;;;;;;;;;4177785;34;20547;-59
2021/03/07 06:07:39;;;;;;;9.25;6.72;;;;;;;;;;4177870;34;20115;-59
2021/03/07 06:10:20;;;;;;;8.68;6.90;;;;;;;;;;4177585;34;20122;-59
2021/03/07 06:13:13;;;;;;;9.55;6.47;;;;;;;;;;4177752;34;20474;-58
2021/03/07 06:15:39;;;;;;;7.30;6.25;;;;;;;;;;4177864;34;20454;-59
2021/03/07 06:18:38;;;;;;;8.52;6.45;;;;;;;;;;4165212;34;20474;-60
2021/03/07 06:21:04;;;;;;;8.32;6.68;;;;;;;;;;4176204;34;20146;-58
2021/03/07 06:23:36;;;;;;;7.20;6.50;;;;;;;;;;4165349;34;20126;-59
2021/03/07 06:26:09;;;;;;;7.40;6.50;;;;;;;;;;4177498;34;20122;-58
2021/03/07 06:28:35;;;;;;;7.32;6.03;;;;;;;;;;4177570;34;20205;-59
2021/03/07 06:31:01;;;;;;;7.72;6.00;;;;;;;;;;4177430;34;20118;-59
2021/03/07 06:33:35;;;;;;;8.15;5.30;;;;;;;;;;4164910;34;20132;-57
2021/03/07 06:36:36;;;;;;;6.47;5.75;;;;;;;;;;4177349;34;20563;-59
2021/03/07 06:39:04;;;;;;;7.70;6.00;;;;;;;;;;4177488;34;20106;-59
2021/03/07 06:41:31;;;;;;;6.87;5.65;;;;;;;;;;4177357;34;20103;-59
2021/03/07 06:44:14;;;;;;;7.60;6.28;;;;;;;;;;4177473;34;20148;-59
2021/03/07 06:46:44;;;;;;;6.95;5.78;;;;;;;;;;4177778;34;20126;-58
2021/03/07 06:49:28;;;;;;;6.90;5.93;;;;;;;;;;4177577;34;20649;-59
2021/03/07 06:52:02;;;;;;;6.97;5.47;;;;;;;;;;4177276;34;20526;-59
2021/03/07 06:54:29;;;;;;;7.32;5.40;;;;;;;;;;4165156;34;20130;-59
2021/03/07 06:56:54;;;;;;;10.98;5.57;;;;;;;;;;4177212;34;20095;-60
2021/03/07 06:59:22;;;;;;;8.63;6.40;;;;;;;;;;4177397;34;20511;-59
2021/03/07 07:01:55;;;;;;;7.00;5.00;;;;;;;;;;4177283;34;20395;-59
2021/03/07 07:04:21;;;;;;;7.35;4.78;;;;;;;;;;4177313;34;20126;-57
2021/03/07 07:07:06;;;;;;;8.30;5.97;;;;;;;;;;4177117;34;20206;-57
2021/03/07 07:09:32;;;;;;;7.35;4.50;;;;;;;;;;4177296;34;20596;-59
2021/03/07 07:11:58;;;;;;;6.40;4.45;;;;;;;;;;4177152;34;20114;-59
2021/03/07 07:14:41;;;;;;;6.55;4.70;;;;;;;;;;4177557;34;20626;-59
2021/03/07 07:17:12;;;;;;;5.07;4.43;;;;;;;;;;4177387;34;20172;-59
2021/03/07 07:19:39;;;;;;;6.35;4.62;;;;;;;;;;4177149;34;20102;-58
2021/03/07 07:22:05;;;;;;;6.60;4.40;;;;;;;;;;4177087;34;20419;-58
2021/03/07 07:24:31;;;;;;;6.18;4.30;;;;;;;;;;4177340;34;20106;-58
2021/03/07 07:26:57;;;;;;;4.32;3.37;;;;;;;;;;4176912;34;20138;-58
2021/03/07 07:29:24;;;;;;;7.03;4.78;;;;;;;;;;4177051;34;20248;-59
2021/03/07 07:32:12;;;;;;;6.07;4.43;;;;;;;;;;4177279;34;20141;-60
2021/03/07 07:34:44;;;;;;;6.15;4.50;;;;;;;;;;4177062;34;20215;-59
2021/03/07 07:37:53;;;;;;;7.25;4.93;;;;;;;;;;4164646;34;20210;-60
2021/03/07 07:40:19;;;;;;;6.28;4.55;;;;;;;;;;4171503;34;20150;-59
2021/03/07 07:42:58;;;;;;;4.97;4.47;;;;;;;;;;4164322;34;20117;-60
2021/03/07 07:45:24;;;;;;;5.90;4.57;;;;;;;;;;4177072;34;20103;-59
2021/03/07 07:47:52;;;;;;;5.70;4.55;;;;;;;;;;4164307;34;20435;-59
2021/03/07 07:50:30;;;;;;;7.80;5.95;;;;;;;;;;4176675;34;20102;-59
2021/03/07 07:52:57;;;;;;;6.30;4.57;;;;;;;;;;4176627;34;20118;-59
2021/03/07 07:55:45;;;;;;;6.07;3.42;;;;;;;;;;4176555;34;20110;-59
2021/03/07 07:58:31;;;;;;;5.03;3.22;;;;;;;;;;4176717;34;20102;-59
2021/03/07 08:00:57;;;;;;;8.38;4.20;;;;;;;;;;4169376;34;20138;-59
2021/03/07 08:03:30;;;;;;;5.82;5.07;;;;;;;;;;4176742;34;20118;-59
2021/03/07 08:05:56;;;;;;;7.85;7.07;;;;;;;;;;4176354;34;20114;-58
2021/03/07 08:08:36;;;;;;;6.60;3.67;;;;;;;;;;4176629;34;20118;-59
2021/03/07 08:11:03;;;;;;;4.85;3.30;;;;;;;;;;4176608;34;20111;-59
2021/03/07 08:13:29;;;;;;;3.95;3.30;;;;;;;;;;4176760;34;20110;-59
2021/03/07 08:15:56;;;;;;;4.43;2.90;;;;;;;;;;4176288;34;20118;-59
2021/03/07 08:18:23;;;;;;;3.72;3.10;;;;;;;;;;4177822;34;20160;-59
2021/03/07 08:20:52;;;;;;;5.10;3.28;;;;;;;;;;4178515;34;20143;-59
2021/03/07 08:23:19;;;;;;;7.25;3.12;;;;;;;;;;4166118;34;20198;-59
2021/03/07 08:25:48;;;;;;;4.30;3.55;;;;;;;;;;4165811;34;20279;-59
2021/03/07 08:28:23;;;;;;;5.03;3.30;;;;;;;;;;4178678;34;20533;-59
2021/03/07 08:30:49;;;;;;;5.05;3.33;;;;;;;;;;4178369;34;20546;-60
2021/03/07 08:33:22;;;;;;;5.07;3.28;;;;;;;;;;4165867;34;20118;-59
2021/03/07 08:36:10;;;;;;;4.60;3.22;;;;;;;;;;4178436;34;20145;-59
2021/03/07 08:39:02;;;;;;;4.28;2.62;;;;;;;;;;4178828;34;20114;-60
2021/03/07 08:41:34;;;;;;;5.62;3.47;;;;;;;;;;4173700;34;20543;-60
2021/03/07 08:44:00;;;;;;;10.43;8.88;;;;;;;;;;4178515;34;20133;-59
2021/03/07 08:46:41;;;;;;;10.48;9.32;;;;;;;;;;4178458;34;20110;-58
2021/03/07 08:49:14;;;;;;;11.93;8.68;;;;;;;;;;4178402;34;20189;-58
2021/03/07 08:51:42;;;;;;;11.30;9.30;;;;;;;;;;4178828;34;20186;-60
2021/03/07 08:54:16;;;;;;;16.42;14.30;;;;;;;;;;4178465;34;20123;-59
2021/03/07 08:56:42;;;;;;;6.30;4.82;;;;;;;;;;4178207;34;20126;-58
2021/03/07 08:59:08;;;;;;;7.72;6.43;;;;;;;;;;4178357;34;20114;-58
2021/03/07 09:01:34;;;;;;;3.70;3.30;;;;;;;;;;4178204;34;20110;-59
2021/03/07 09:04:05;;;;;;;5.03;3.60;;;;;;;;;;4178328;34;20087;-58
2021/03/07 09:06:49;;;;;;;7.97;4.68;;;;;;;;;;4178101;34;20199;-59
2021/03/07 09:09:19;;;;;;;9.73;6.80;;;;;;;;;;4178373;34;20174;-59
2021/03/07 09:12:02;;;;;;;4.53;3.47;;;;;;;;;;4178649;34;20182;-59
2021/03/07 09:14:36;;;;;;;8.57;6.25;;;;;;;;;;4178299;34;20126;-60
2021/03/07 09:17:15;;;;;;;6.07;3.55;;;;;;;;;;4178021;34;20122;-60
2021/03/07 09:19:41;;;;;;;5.93;3.75;;;;;;;;;;4165596;34;20106;-59
2021/03/07 09:22:15;;;;;;;7.45;3.78;;;;;;;;;;4177943;34;20126;-58
2021/03/07 09:24:55;;;;;;;4.40;3.20;;;;;;;;;;4178125;34;20435;-59
2021/03/07 09:27:22;;;;;;;4.40;3.00;;;;;;;;;;4178125;34;20234;-59
2021/03/07 09:29:55;;;;;;;5.65;4.28;;;;;;;;;;4164765;34;20125;-58
2021/03/07 09:32:25;;;;;;;5.40;3.45;;;;;;;;;;4178254;34;20141;-58
2021/03/07 09:34:50;;;;;;;6.28;3.92;;;;;;;;;;4178153;34;20122;-58
2021/03/07 09:37:16;;;;;;;4.15;3.20;;;;;;;;;;4178015;34;20515;-57
2021/03/07 09:39:50;;;;;;;4.25;3.03;;;;;;;;;;4165606;34;20106;-58
2021/03/07 09:42:17;;;;;;;5.90;5.30;;;;;;;;;;4178158;34;20130;-58
2021/03/07 09:44:43;;;;;;;4.93;3.72;;;;;;;;;;4177957;34;20091;-58
2021/03/07 09:47:09;;;;;;;4.40;3.53;;;;;;;;;;4154341;34;20220;-58
2021/03/07 09:49:35;;;;;;;4.70;3.25;;;;;;;;;;4177928;34;20114;-58
2021/03/07 09:52:01;;;;;;;3.67;2.97;;;;;;;;;;4165244;34;20535;-58
2021/03/07 09:54:27;;;;;;;4.07;3.12;;;;;;;;;;4177957;34;20119;-57
2021/03/07 09:56:54;;;;;;;4.82;2.95;;;;;;;;;;4177691;34;20130;-58
2021/03/07 09:59:27;;;;;;;3.40;2.78;;;;;;;;;;4177898;34;20171;-58
2021/03/07 10:02:06;;;;;;;4.87;3.00;;;;;;;;;;4177782;34;20113;-58
2021/03/07 10:04:45;;;;;;;3.50;2.67;;;;;;;;;;4177827;34;20601;-57
2021/03/07 10:07:12;;;;;;;3.83;2.92;;;;;;;;;;4177460;34;20127;-58
2021/03/07 10:09:57;;;;;;;3.12;2.78;;;;;;;;;;4177825;34;20522;-57
2021/03/07 10:12:23;;;;;;;5.30;3.47;;;;;;;;;;4178014;34;20210;-58
2021/03/07 10:14:53;;;;;;;5.05;3.75;;;;;;;;;;4165083;34;20213;-60
2021/03/07 10:17:19;;;;;;;4.35;3.12;;;;;;;;;;4177618;34;20190;-57
2021/03/07 10:19:45;;;;;;;4.43;3.08;;;;;;;;;;4178010;34;20129;-58
2021/03/07 10:22:11;;;;;;;4.35;3.17;;;;;;;;;;4177524;34;20106;-58
2021/03/07 10:24:37;;;;;;;3.90;3.03;;;;;;;;;;4177650;34;20517;-57
2021/03/07 10:27:08;;;;;;;4.22;3.42;;;;;;;;;;4177563;34;20121;-58
2021/03/07 10:29:38;;;;;;;4.50;3.67;;;;;;;;;;4177841;34;20131;-58
2021/03/07 10:32:13;;;;;;;3.97;2.78;;;;;;;;;;4177399;34;20565;-59
2021/03/07 10:34:43;;;;;;;4.35;2.97;;;;;;;;;;4177603;34;20125;-59
2021/03/07 10:37:30;;;;;;;4.07;3.33;;;;;;;;;;4177453;34;20129;-57
2021/03/07 10:39:56;;;;;;;4.10;3.17;;;;;;;;;;4177257;34;20103;-58
2021/03/07 10:42:25;;;;;;;5.68;4.55;;;;;;;;;;4177382;34;20121;-58
2021/03/07 10:44:51;;;;;;;6.65;3.95;;;;;;;;;;4153980;34;20122;-57
2021/03/07 10:47:19;;;;;;;7.60;5.00;;;;;;;;;;4164733;34;20470;-57
2021/03/07 10:49:48;;;;;;;3.78;3.20;;;;;;;;;;4177753;34;20117;-57
2021/03/07 10:52:15;;;;;;;6.72;4.80;;;;;;;;;;4177785;34;20125;-57
2021/03/07 10:54:41;;;;;;;4.97;3.80;;;;;;;;;;4177464;34;20506;-57
2021/03/07 10:57:08;;;;;;;5.43;3.78;;;;;;;;;;4177356;34;20197;-57
2021/03/07 10:59:34;;;;;;;5.75;3.62;;;;;;;;;;4177491;34;20212;-59
2021/03/07 11:02:00;;;;;;;5.75;3.83;;;;;;;;;;4177141;34;20134;-58
2021/03/07 11:04:26;;;;;;;5.45;4.28;;;;;;;;;;4164641;34;20178;-57
2021/03/07 11:06:52;;;;;;;8.88;4.47;;;;;;;;;;4164388;34;20546;-58
2021/03/07 11:09:17;;;;;;;8.05;5.70;;;;;;;;;;4177457;34;20087;-58
2021/03/07 11:11:43;;;;;;;7.35;6.05;;;;;;;;;;4177156;34;20121;-58
2021/03/07 11:14:09;;;;;;;6.28;5.50;;;;;;;;;;4177416;34;20200;-58
2021/03/07 11:16:35;;;;;;;15.38;12.90;;;;;;;;;;4177073;34;20191;-58
2021/03/07 11:19:01;;;;;;;18.17;15.77;;;;;;;;;;4177242;34;20099;-59
2021/03/07 11:21:27;;;;;;;9.25;6.47;;;;;;;;;;4177092;34;20237;-58
2021/03/07 11:23:53;;;;;;;10.98;7.90;;;;;;;;;;4177142;34;20519;-58
2021/03/07 11:26:19;;;;;;;9.95;7.62;;;;;;;;;;4176977;34;20093;-58
2021/03/07 11:28:45;;;;;;;7.32;5.32;;;;;;;;;;4177097;34;20106;-58
2021/03/07 11:31:10;;;;;;;6.45;4.95;;;;;;;;;;4177000;34;20193;-58
2021/03/07 11:33:36;;;;;;;8.25;5.70;;;;;;;;;;4164275;34;20224;-59
2021/03/07 11:36:02;;;;;;;9.10;6.30;;;;;;;;;;4177019;34;20114;-59
2021/03/07 11:38:28;;;;;;;5.47;4.70;;;;;;;;;;4177246;34;20137;-59
2021/03/07 11:40:54;;;;;;;8.38;5.12;;;;;;;;;;4176871;34;20126;-59
2021/03/07 11:43:20;;;;;;;7.75;4.70;;;;;;;;;;4177264;34;20189;-59
2021/03/07 11:45:46;;;;;;;7.57;5.53;;;;;;;;;;4176712;34;20118;-58
2021/03/07 11:48:11;;;;;;;6.07;5.00;;;;;;;;;;4176803;34;20118;-58
2021/03/07 11:50:37;;;;;;;6.97;4.78;;;;;;;;;;4176691;34;20133;-58
2021/03/07 11:53:03;;;;;;;7.12;5.40;;;;;;;;;;4177932;34;20638;-57
2021/03/07 11:55:29;;;;;;;8.75;7.30;;;;;;;;;;4178806;34;20138;-59
2021/03/07 11:57:55;;;;;;;5.95;4.97;;;;;;;;;;4179212;34;20683;-58
2021/03/07 12:00:21;;;;;;;10.07;6.62;;;;;;;;;;4178730;34;20134;-58
2021/03/07 12:02:47;;;;;;;8.65;5.87;;;;;;;;;;4179127;34;20102;-58
2021/03/07 12:05:13;;;;;;;6.20;5.40;;;;;;;;;;4178755;34;20121;-57
2021/03/07 12:07:39;;;;;;;4.97;4.45;;;;;;;;;;4178974;34;20158;-57
2021/03/07 12:10:05;;;;;;;7.10;4.90;;;;;;;;;;4178890;34;20130;-58
2021/03/07 12:12:31;;;;;;;5.20;4.15;;;;;;;;;;4179063;34;20114;-57
2021/03/07 12:14:57;;;;;;;6.70;4.75;;;;;;;;;;4178714;34;20099;-57
2021/03/07 12:17:23;;;;;;;6.05;4.37;;;;;;;;;;4178790;34;20122;-58
2021/03/07 12:19:49;;;;;;;6.80;5.78;;;;;;;;;;4178920;34;20206;-59
2021/03/07 12:22:15;;;;;;;9.77;6.62;;;;;;;;;;4178776;34;20126;-58
2021/03/07 12:24:41;;;;;;;13.73;11.12;;;;;;;;;;4178724;34;20158;-58
2021/03/07 12:27:07;;;;;;;6.20;5.35;;;;;;;;;;4178689;34;20146;-58
2021/03/07 12:29:34;;;;;;;10.85;7.28;;;;;;;;;;4178677;34;20102;-57
2021/03/07 12:32:00;;;;;;;7.28;6.03;;;;;;;;;;4178672;34;20197;-58
2021/03/07 12:34:26;;;;;;;12.05;8.63;;;;;;;;;;4178608;34;20121;-59
2021/03/07 12:36:52;;;;;;;12.43;10.85;;;;;;;;;;4178518;34;20126;-58
2021/03/07 12:39:18;;;;;;;10.20;9.10;;;;;;;;;;4178598;34;20678;-58
2021/03/07 12:41:44;;;;;;;7.45;6.57;;;;;;;;;;4178675;34;20100;-59
2021/03/07 12:44:09;;;;;;;6.97;5.43;;;;;;;;;;4178568;34;20134;-58
2021/03/07 12:46:35;;;;;;;5.10;4.22;;;;;;;;;;4178421;34;20228;-58
2021/03/07 12:49:01;;;;;;;6.15;4.40;;;;;;;;;;4178382;34;20217;-58
2021/03/07 12:51:27;;;;;;;4.95;3.67;;;;;;;;;;4178546;34;20141;-58
2021/03/07 12:53:54;;;;;;;5.40;4.60;;;;;;;;;;4178399;34;20113;-58
2021/03/07 12:56:20;;;;;;;4.20;3.80;;;;;;;;;;4178191;34;20523;-58
2021/03/07 12:58:46;;;;;;;7.50;5.70;;;;;;;;;;4178328;34;20114;-58
2021/03/07 13:01:12;;;;;;;8.73;7.22;;;;;;;;;;4178214;34;20105;-58
2021/03/07 13:03:38;;;;;;;8.45;7.55;;;;;;;;;;4178346;34;20192;-59
2021/03/07 13:06:04;;;;;;;5.87;4.57;;;;;;;;;;4178068;34;20640;-59
2021/03/07 13:08:30;;;;;;;13.35;11.02;;;;;;;;;;4178335;34;20201;-59
2021/03/07 13:10:55;;;;;;;9.20;7.90;;;;;;;;;;4178275;34;20154;-58
2021/03/07 13:13:21;;;;;;;8.77;7.87;;;;;;;;;;4178363;34;20179;-58
2021/03/07 13:15:47;;;;;;;6.68;6.07;;;;;;;;;;4178052;34;20119;-58
2021/03/07 13:18:13;;;;;;;6.30;5.70;;;;;;;;;;4178228;34;20110;-58
2021/03/07 13:20:39;;;;;;;8.02;5.28;;;;;;;;;;4178092;34;20550;-58
2021/03/07 13:23:05;;;;;;;5.22;4.72;;;;;;;;;;4178210;34;20435;-59
2021/03/07 13:25:31;;;;;;;5.20;4.62;;;;;;;;;;4178150;34;20153;-59
2021/03/07 13:27:57;;;;;;;5.35;3.90;;;;;;;;;;4178132;34;20139;-58
2021/03/07 13:30:23;;;;;;;6.75;4.95;;;;;;;;;;4178035;34;20133;-59
2021/03/07 13:32:49;;;;;;;5.55;4.47;;;;;;;;;;4178030;34;20131;-59
2021/03/07 13:35:15;;;;;;;5.55;4.37;;;;;;;;;;4177982;34;20142;-57
2021/03/07 13:37:41;;;;;;;5.32;4.53;;;;;;;;;;4178070;34;20207;-58
2021/03/07 13:40:07;;;;;;;4.75;4.25;;;;;;;;;;4177920;34;20122;-58
2021/03/07 13:42:34;;;;;;;5.90;3.60;;;;;;;;;;4177964;34;20440;-58
2021/03/07 13:45:00;;;;;;;5.57;4.20;;;;;;;;;;4177877;34;20122;-58
2021/03/07 13:47:25;;;;;;;4.37;3.97;;;;;;;;;;4178343;34;20103;-58
2021/03/07 13:49:51;;;;;;;4.87;3.72;;;;;;;;;;4177963;34;20106;-58
2021/03/07 13:52:17;;;;;;;4.35;3.58;;;;;;;;;;4177915;34;20133;-58
2021/03/07 13:54:43;;;;;;;4.43;3.60;;;;;;;;;;4178094;34;20098;-58
2021/03/07 13:57:09;;;;;;;5.47;4.72;;;;;;;;;;4177821;34;20150;-59
2021/03/07 13:59:35;;;;;;;5.60;5.00;;;;;;;;;;4178087;34;20134;-59
2021/03/07 14:02:01;;;;;;;6.05;4.93;;;;;;;;;;4177821;34;20141;-59
2021/03/07 14:04:26;;;;;;;5.03;4.25;;;;;;;;;;4177916;34;20739;-59
2021/03/07 14:06:52;;;;;;;6.70;5.37;;;;;;;;;;4177823;34;20118;-58
2021/03/07 14:09:18;;;;;;;9.10;5.65;;;;;;;;;;4177885;34;20169;-58
2021/03/07 14:11:44;;;;;;;5.07;4.57;;;;;;;;;;4177698;34;20122;-58
2021/03/07 14:14:10;;;;;;;4.22;3.83;;;;;;;;;;4165076;34;20130;-58
2021/03/07 14:16:36;;;;;;;4.57;4.05;;;;;;;;;;4177080;34;20118;-58
2021/03/07 14:19:02;;;;;;;5.97;4.53;;;;;;;;;;4177718;34;20238;-58
2021/03/07 14:21:28;;;;;;;5.25;4.12;;;;;;;;;;4177823;34;20102;-58
2021/03/07 14:23:54;;;;;;;5.12;4.60;;;;;;;;;;4177688;34;20114;-58
2021/03/07 14:26:20;;;;;;;5.93;4.90;;;;;;;;;;4177508;34;20118;-58
2021/03/07 14:28:45;;;;;;;5.65;4.60;;;;;;;;;;4177667;34;20496;-58
2021/03/07 14:31:11;;;;;;;6.07;4.50;;;;;;;;;;4177721;34;20104;-58
2021/03/07 14:33:37;;;;;;;5.55;4.60;;;;;;;;;;4177895;34;20107;-58
2021/03/07 14:36:03;;;;;;;5.15;4.60;;;;;;;;;;4177491;34;20137;-59
2021/03/07 14:38:29;;;;;;;5.40;4.45;;;;;;;;;;4177632;34;20125;-59
2021/03/07 14:40:55;;;;;;;6.05;4.47;;;;;;;;;;4177644;34;20480;-59
2021/03/07 14:43:21;;;;;;;5.32;4.07;;;;;;;;;;4177899;34;20475;-58
2021/03/07 14:45:47;;;;;;;4.87;4.43;;;;;;;;;;4177445;34;20231;-58
2021/03/07 14:48:13;;;;;;;5.22;4.45;;;;;;;;;;4177431;34;20116;-58